sensor_id;sensor_type;location;lat;lon;timestamp;P1;durP1;ratioP1;P2;durP2;ratioP2
11653;SDS011;5883;48.818;9.114;2022-11-03T00:02:23;5.40;;;2.90;;
11653;SDS011;5883;48.818;9.114;2022-11-03T00:04:49;6.10;;;3.22;;
11653;SDS011;5883;48.818;9.114;2022-11-03T00:07:18;4.47;;;2.78;;
11653;SDS011;5883;48.818;9.114;2022-11-03T00:09:45;7.85;;;3.30;;
11653;SDS011;5883;48.818;9.114;2022-11-03T00:12:11;6.40;;;3.10;;
11653;SDS011;5883;48.818;9.114;2022-11-03T00:14:38;10.63;;;3.25;;
11653;SDS011;5883;48.818;9.114;2022-11-03T00:17:04;8.20;;;3.15;;
11653;SDS011;5883;48.818;9.114;2022-11-03T00:19:32;7.72;;;3.30;;
11653;SDS011;5883;48.818;9.114;2022-11-03T00:21:59;11.15;;;3.55;;
11653;SDS011;5883;48.818;9.114;2022-11-03T00:24:25;15.13;;;4.00;;
11653;SDS011;5883;48.818;9.114;2022-11-03T00:26:52;5.35;;;3.10;;
11653;SDS011;5883;48.818;9.114;2022-11-03T00:29:18;7.90;;;3.50;;
11653;SDS011;5883;48.818;9.114;2022-11-03T00:31:45;7.43;;;3.33;;
11653;SDS011;5883;48.818;9.114;2022-11-03T00:34:12;10.02;;;3.40;;
11653;SDS011;5883;48.818;9.114;2022-11-03T00:36:40;7.53;;;3.88;;
11653;SDS011;5883;48.818;9.114;2022-11-03T00:39:07;10.40;;;3.88;;
11653;SDS011;5883;48.818;9.114;2022-11-03T00:41:33;7.78;;;3.70;;
11653;SDS011;5883;48.818;9.114;2022-11-03T00:44:00;8.85;;;3.70;;
11653;SDS011;5883;48.818;9.114;2022-11-03T00:46:26;11.45;;;3.40;;
11653;SDS011;5883;48.818;9.114;2022-11-03T00:48:54;10.85;;;4.28;;
11653;SDS011;5883;48.818;9.114;2022-11-03T00:51:22;8.75;;;3.50;;
11653;SDS011;5883;48.818;9.114;2022-11-03T00:53:51;8.82;;;4.05;;
11653;SDS011;5883;48.818;9.114;2022-11-03T00:56:18;10.43;;;4.43;;
11653;SDS011;5883;48.818;9.114;2022-11-03T00:58:45;13.05;;;4.22;;
11653;SDS011;5883;48.818;9.114;2022-11-03T01:01:12;12.60;;;3.47;;
11653;SDS011;5883;48.818;9.114;2022-11-03T01:03:40;5.57;;;3.13;;
11653;SDS011;5883;48.818;9.114;2022-11-03T01:06:27;11.18;;;3.92;;
11653;SDS011;5883;48.818;9.114;2022-11-03T01:09:13;11.82;;;3.90;;
11653;SDS011;5883;48.818;9.114;2022-11-03T01:11:39;9.43;;;3.10;;
11653;SDS011;5883;48.818;9.114;2022-11-03T01:14:09;5.40;;;3.28;;
11653;SDS011;5883;48.818;9.114;2022-11-03T01:16:36;9.50;;;3.58;;
11653;SDS011;5883;48.818;9.114;2022-11-03T01:19:03;5.72;;;3.38;;
11653;SDS011;5883;48.818;9.114;2022-11-03T01:21:29;8.07;;;3.20;;
11653;SDS011;5883;48.818;9.114;2022-11-03T01:23:56;5.78;;;3.13;;
11653;SDS011;5883;48.818;9.114;2022-11-03T01:26:26;10.25;;;3.80;;
11653;SDS011;5883;48.818;9.114;2022-11-03T01:28:53;6.57;;;3.33;;
11653;SDS011;5883;48.818;9.114;2022-11-03T01:31:20;12.45;;;3.03;;
11653;SDS011;5883;48.818;9.114;2022-11-03T01:33:48;8.77;;;2.90;;
11653;SDS011;5883;48.818;9.114;2022-11-03T01:36:14;10.45;;;3.38;;
11653;SDS011;5883;48.818;9.114;2022-11-03T01:38:41;8.27;;;3.70;;
11653;SDS011;5883;48.818;9.114;2022-11-03T01:41:09;9.80;;;2.72;;
11653;SDS011;5883;48.818;9.114;2022-11-03T01:43:37;8.85;;;3.17;;
11653;SDS011;5883;48.818;9.114;2022-11-03T01:46:05;8.38;;;3.33;;
11653;SDS011;5883;48.818;9.114;2022-11-03T01:48:33;5.80;;;2.78;;
11653;SDS011;5883;48.818;9.114;2022-11-03T01:51:00;8.50;;;3.30;;
11653;SDS011;5883;48.818;9.114;2022-11-03T01:53:28;9.13;;;3.08;;
11653;SDS011;5883;48.818;9.114;2022-11-03T01:55:55;7.47;;;3.40;;
11653;SDS011;5883;48.818;9.114;2022-11-03T01:58:22;9.27;;;3.40;;
11653;SDS011;5883;48.818;9.114;2022-11-03T02:00:51;6.18;;;3.13;;
11653;SDS011;5883;48.818;9.114;2022-11-03T02:03:19;5.20;;;3.17;;
11653;SDS011;5883;48.818;9.114;2022-11-03T02:05:47;9.02;;;3.30;;
11653;SDS011;5883;48.818;9.114;2022-11-03T02:08:15;5.63;;;2.85;;
11653;SDS011;5883;48.818;9.114;2022-11-03T02:10:44;7.85;;;2.97;;
11653;SDS011;5883;48.818;9.114;2022-11-03T02:13:14;8.55;;;3.38;;
11653;SDS011;5883;48.818;9.114;2022-11-03T02:15:41;5.95;;;2.78;;
11653;SDS011;5883;48.818;9.114;2022-11-03T02:18:09;6.18;;;3.22;;
11653;SDS011;5883;48.818;9.114;2022-11-03T02:20:37;7.93;;;2.90;;
11653;SDS011;5883;48.818;9.114;2022-11-03T02:25:50;7.15;;;3.25;;
11653;SDS011;5883;48.818;9.114;2022-11-03T02:28:18;9.20;;;3.88;;
11653;SDS011;5883;48.818;9.114;2022-11-03T02:30:48;6.50;;;3.72;;
11653;SDS011;5883;48.818;9.114;2022-11-03T02:33:19;14.05;;;3.42;;
11653;SDS011;5883;48.818;9.114;2022-11-03T02:35:48;7.20;;;3.63;;
11653;SDS011;5883;48.818;9.114;2022-11-03T02:38:16;9.85;;;3.70;;
11653;SDS011;5883;48.818;9.114;2022-11-03T02:40:46;7.88;;;3.58;;
11653;SDS011;5883;48.818;9.114;2022-11-03T02:43:15;9.85;;;4.05;;
11653;SDS011;5883;48.818;9.114;2022-11-03T02:45:42;7.00;;;3.97;;
11653;SDS011;5883;48.818;9.114;2022-11-03T02:48:10;10.75;;;3.40;;
11653;SDS011;5883;48.818;9.114;2022-11-03T02:50:37;9.57;;;3.53;;
11653;SDS011;5883;48.818;9.114;2022-11-03T02:53:03;9.48;;;4.00;;
11653;SDS011;5883;48.818;9.114;2022-11-03T02:55:31;10.25;;;3.63;;
11653;SDS011;5883;48.818;9.114;2022-11-03T02:58:03;7.85;;;4.32;;
11653;SDS011;5883;48.818;9.114;2022-11-03T03:00:33;12.02;;;4.07;;
11653;SDS011;5883;48.818;9.114;2022-11-03T03:03:03;13.95;;;4.07;;
11653;SDS011;5883;48.818;9.114;2022-11-03T03:05:33;10.13;;;3.78;;
11653;SDS011;5883;48.818;9.114;2022-11-03T03:08:00;7.45;;;3.80;;
11653;SDS011;5883;48.818;9.114;2022-11-03T03:10:28;7.68;;;3.60;;
11653;SDS011;5883;48.818;9.114;2022-11-03T03:12:56;7.35;;;3.60;;
11653;SDS011;5883;48.818;9.114;2022-11-03T03:15:25;8.90;;;3.53;;
11653;SDS011;5883;48.818;9.114;2022-11-03T03:17:58;10.20;;;3.85;;
11653;SDS011;5883;48.818;9.114;2022-11-03T03:20:27;7.97;;;3.30;;
11653;SDS011;5883;48.818;9.114;2022-11-03T03:22:57;10.30;;;4.03;;
11653;SDS011;5883;48.818;9.114;2022-11-03T03:25:25;6.88;;;3.25;;
11653;SDS011;5883;48.818;9.114;2022-11-03T03:27:54;7.47;;;3.38;;
11653;SDS011;5883;48.818;9.114;2022-11-03T03:30:23;8.35;;;3.50;;
11653;SDS011;5883;48.818;9.114;2022-11-03T03:32:50;9.00;;;3.17;;
11653;SDS011;5883;48.818;9.114;2022-11-03T03:35:19;5.97;;;3.05;;
11653;SDS011;5883;48.818;9.114;2022-11-03T03:37:48;6.78;;;3.33;;
11653;SDS011;5883;48.818;9.114;2022-11-03T03:40:17;9.38;;;3.58;;
11653;SDS011;5883;48.818;9.114;2022-11-03T03:42:46;6.72;;;3.17;;
11653;SDS011;5883;48.818;9.114;2022-11-03T03:45:13;5.50;;;2.90;;
11653;SDS011;5883;48.818;9.114;2022-11-03T03:47:40;6.60;;;3.70;;
11653;SDS011;5883;48.818;9.114;2022-11-03T03:50:07;7.05;;;3.42;;
11653;SDS011;5883;48.818;9.114;2022-11-03T03:52:35;5.10;;;3.33;;
11653;SDS011;5883;48.818;9.114;2022-11-03T03:55:02;10.07;;;3.88;;
11653;SDS011;5883;48.818;9.114;2022-11-03T03:57:29;9.00;;;3.88;;
11653;SDS011;5883;48.818;9.114;2022-11-03T03:59:56;5.43;;;3.85;;
11653;SDS011;5883;48.818;9.114;2022-11-03T04:02:23;11.18;;;6.25;;
11653;SDS011;5883;48.818;9.114;2022-11-03T04:04:49;6.90;;;4.43;;
11653;SDS011;5883;48.818;9.114;2022-11-03T04:07:16;10.15;;;4.65;;
11653;SDS011;5883;48.818;9.114;2022-11-03T04:10:01;10.48;;;4.88;;
11653;SDS011;5883;48.818;9.114;2022-11-03T04:12:28;10.35;;;5.20;;
11653;SDS011;5883;48.818;9.114;2022-11-03T04:15:12;8.65;;;4.53;;
11653;SDS011;5883;48.818;9.114;2022-11-03T04:17:56;6.82;;;4.65;;
11653;SDS011;5883;48.818;9.114;2022-11-03T04:20:40;6.65;;;3.80;;
11653;SDS011;5883;48.818;9.114;2022-11-03T04:23:24;10.95;;;4.10;;
11653;SDS011;5883;48.818;9.114;2022-11-03T04:25:53;5.70;;;3.65;;
11653;SDS011;5883;48.818;9.114;2022-11-03T04:28:20;12.07;;;4.25;;
11653;SDS011;5883;48.818;9.114;2022-11-03T04:30:46;11.57;;;5.13;;
11653;SDS011;5883;48.818;9.114;2022-11-03T04:33:13;9.52;;;4.85;;
11653;SDS011;5883;48.818;9.114;2022-11-03T04:35:40;11.90;;;4.20;;
11653;SDS011;5883;48.818;9.114;2022-11-03T04:38:17;10.02;;;4.40;;
11653;SDS011;5883;48.818;9.114;2022-11-03T04:40:45;8.23;;;4.53;;
11653;SDS011;5883;48.818;9.114;2022-11-03T04:43:14;8.73;;;4.22;;
11653;SDS011;5883;48.818;9.114;2022-11-03T04:45:41;10.35;;;5.05;;
11653;SDS011;5883;48.818;9.114;2022-11-03T04:48:09;10.23;;;4.70;;
11653;SDS011;5883;48.818;9.114;2022-11-03T04:50:37;9.93;;;5.00;;
11653;SDS011;5883;48.818;9.114;2022-11-03T04:53:04;9.32;;;5.07;;
11653;SDS011;5883;48.818;9.114;2022-11-03T04:55:34;8.52;;;4.88;;
11653;SDS011;5883;48.818;9.114;2022-11-03T04:58:03;9.15;;;5.65;;
11653;SDS011;5883;48.818;9.114;2022-11-03T05:00:31;8.15;;;5.18;;
11653;SDS011;5883;48.818;9.114;2022-11-03T05:02:58;10.50;;;5.18;;
11653;SDS011;5883;48.818;9.114;2022-11-03T05:05:24;12.50;;;5.47;;
11653;SDS011;5883;48.818;9.114;2022-11-03T05:07:52;9.70;;;5.72;;
11653;SDS011;5883;48.818;9.114;2022-11-03T05:10:19;11.57;;;5.80;;
11653;SDS011;5883;48.818;9.114;2022-11-03T05:12:46;14.32;;;6.18;;
11653;SDS011;5883;48.818;9.114;2022-11-03T05:15:22;9.52;;;6.40;;
11653;SDS011;5883;48.818;9.114;2022-11-03T05:17:51;12.65;;;6.65;;
11653;SDS011;5883;48.818;9.114;2022-11-03T05:20:23;11.55;;;6.00;;
11653;SDS011;5883;48.818;9.114;2022-11-03T05:22:51;11.45;;;5.60;;
11653;SDS011;5883;48.818;9.114;2022-11-03T05:25:24;12.57;;;5.93;;
11653;SDS011;5883;48.818;9.114;2022-11-03T05:27:53;10.80;;;5.70;;
11653;SDS011;5883;48.818;9.114;2022-11-03T05:30:20;10.45;;;5.72;;
11653;SDS011;5883;48.818;9.114;2022-11-03T05:32:46;9.07;;;5.22;;
11653;SDS011;5883;48.818;9.114;2022-11-03T05:35:17;9.25;;;6.00;;
11653;SDS011;5883;48.818;9.114;2022-11-03T05:37:44;11.90;;;5.80;;
11653;SDS011;5883;48.818;9.114;2022-11-03T05:40:14;11.38;;;5.78;;
11653;SDS011;5883;48.818;9.114;2022-11-03T05:42:42;9.50;;;6.15;;
11653;SDS011;5883;48.818;9.114;2022-11-03T05:45:13;10.95;;;6.15;;
11653;SDS011;5883;48.818;9.114;2022-11-03T05:47:41;13.40;;;6.03;;
11653;SDS011;5883;48.818;9.114;2022-11-03T05:50:13;8.50;;;4.97;;
11653;SDS011;5883;48.818;9.114;2022-11-03T05:52:41;10.73;;;5.68;;
11653;SDS011;5883;48.818;9.114;2022-11-03T05:55:13;11.63;;;6.10;;
11653;SDS011;5883;48.818;9.114;2022-11-03T05:57:44;13.60;;;6.65;;
11653;SDS011;5883;48.818;9.114;2022-11-03T06:00:18;9.55;;;6.60;;
11653;SDS011;5883;48.818;9.114;2022-11-03T06:02:46;11.48;;;7.03;;
11653;SDS011;5883;48.818;9.114;2022-11-03T06:05:16;11.40;;;7.30;;
11653;SDS011;5883;48.818;9.114;2022-11-03T06:07:45;12.25;;;7.10;;
11653;SDS011;5883;48.818;9.114;2022-11-03T06:10:17;9.50;;;6.13;;
11653;SDS011;5883;48.818;9.114;2022-11-03T06:12:45;8.32;;;6.05;;
11653;SDS011;5883;48.818;9.114;2022-11-03T06:15:18;10.82;;;5.70;;
11653;SDS011;5883;48.818;9.114;2022-11-03T06:17:47;10.35;;;5.93;;
11653;SDS011;5883;48.818;9.114;2022-11-03T06:20:15;11.43;;;6.53;;
11653;SDS011;5883;48.818;9.114;2022-11-03T06:22:42;10.18;;;6.22;;
11653;SDS011;5883;48.818;9.114;2022-11-03T06:25:12;10.50;;;6.82;;
11653;SDS011;5883;48.818;9.114;2022-11-03T06:27:41;12.10;;;7.25;;
11653;SDS011;5883;48.818;9.114;2022-11-03T06:30:16;15.43;;;7.18;;
11653;SDS011;5883;48.818;9.114;2022-11-03T06:32:44;11.32;;;7.40;;
11653;SDS011;5883;48.818;9.114;2022-11-03T06:35:11;14.63;;;6.70;;
11653;SDS011;5883;48.818;9.114;2022-11-03T06:37:38;15.32;;;7.65;;
11653;SDS011;5883;48.818;9.114;2022-11-03T06:40:25;12.85;;;7.00;;
11653;SDS011;5883;48.818;9.114;2022-11-03T06:42:54;9.48;;;6.18;;
11653;SDS011;5883;48.818;9.114;2022-11-03T06:45:23;13.50;;;7.15;;
11653;SDS011;5883;48.818;9.114;2022-11-03T06:47:50;12.38;;;7.47;;
11653;SDS011;5883;48.818;9.114;2022-11-03T06:50:18;11.77;;;6.90;;
11653;SDS011;5883;48.818;9.114;2022-11-03T06:52:46;17.90;;;7.45;;
11653;SDS011;5883;48.818;9.114;2022-11-03T06:55:22;16.58;;;7.05;;
11653;SDS011;5883;48.818;9.114;2022-11-03T06:57:50;13.85;;;7.45;;
11653;SDS011;5883;48.818;9.114;2022-11-03T07:00:19;16.58;;;6.57;;
11653;SDS011;5883;48.818;9.114;2022-11-03T07:02:52;15.48;;;6.93;;
11653;SDS011;5883;48.818;9.114;2022-11-03T07:05:21;12.85;;;6.05;;
11653;SDS011;5883;48.818;9.114;2022-11-03T07:07:48;26.55;;;7.55;;
11653;SDS011;5883;48.818;9.114;2022-11-03T07:10:15;15.20;;;6.38;;
11653;SDS011;5883;48.818;9.114;2022-11-03T07:12:43;14.70;;;7.30;;
11653;SDS011;5883;48.818;9.114;2022-11-03T07:15:22;8.38;;;6.30;;
11653;SDS011;5883;48.818;9.114;2022-11-03T07:17:49;11.40;;;6.32;;
11653;SDS011;5883;48.818;9.114;2022-11-03T07:20:16;10.98;;;6.25;;
11653;SDS011;5883;48.818;9.114;2022-11-03T07:22:43;13.82;;;5.93;;
11653;SDS011;5883;48.818;9.114;2022-11-03T07:25:13;9.23;;;6.20;;
11653;SDS011;5883;48.818;9.114;2022-11-03T07:27:40;8.88;;;5.95;;
11653;SDS011;5883;48.818;9.114;2022-11-03T07:30:13;12.13;;;6.38;;
11653;SDS011;5883;48.818;9.114;2022-11-03T07:32:43;11.70;;;6.43;;
11653;SDS011;5883;48.818;9.114;2022-11-03T07:35:17;8.90;;;6.15;;
11653;SDS011;5883;48.818;9.114;2022-11-03T07:37:47;15.75;;;6.82;;
11653;SDS011;5883;48.818;9.114;2022-11-03T07:40:16;13.45;;;6.28;;
11653;SDS011;5883;48.818;9.114;2022-11-03T07:42:43;11.43;;;5.57;;
11653;SDS011;5883;48.818;9.114;2022-11-03T07:45:29;8.55;;;5.65;;
11653;SDS011;5883;48.818;9.114;2022-11-03T07:47:56;11.55;;;5.93;;
11653;SDS011;5883;48.818;9.114;2022-11-03T07:50:23;9.63;;;5.30;;
11653;SDS011;5883;48.818;9.114;2022-11-03T07:52:49;8.18;;;5.07;;
11653;SDS011;5883;48.818;9.114;2022-11-03T07:55:16;15.40;;;5.93;;
11653;SDS011;5883;48.818;9.114;2022-11-03T07:57:43;11.32;;;5.75;;
11653;SDS011;5883;48.818;9.114;2022-11-03T08:00:10;11.63;;;6.70;;
11653;SDS011;5883;48.818;9.114;2022-11-03T08:02:47;14.32;;;5.90;;
11653;SDS011;5883;48.818;9.114;2022-11-03T08:05:14;15.30;;;6.30;;
11653;SDS011;5883;48.818;9.114;2022-11-03T08:07:40;15.20;;;5.80;;
11653;SDS011;5883;48.818;9.114;2022-11-03T08:10:07;10.13;;;5.80;;
11653;SDS011;5883;48.818;9.114;2022-11-03T08:12:34;11.07;;;5.93;;
11653;SDS011;5883;48.818;9.114;2022-11-03T08:15:00;11.18;;;5.30;;
11653;SDS011;5883;48.818;9.114;2022-11-03T08:17:27;11.00;;;6.05;;
11653;SDS011;5883;48.818;9.114;2022-11-03T08:19:55;7.82;;;6.03;;
11653;SDS011;5883;48.818;9.114;2022-11-03T08:22:22;9.45;;;5.72;;
11653;SDS011;5883;48.818;9.114;2022-11-03T08:24:50;8.60;;;5.13;;
11653;SDS011;5883;48.818;9.114;2022-11-03T08:27:16;9.02;;;5.13;;
11653;SDS011;5883;48.818;9.114;2022-11-03T08:29:43;8.35;;;5.05;;
11653;SDS011;5883;48.818;9.114;2022-11-03T08:32:10;7.82;;;4.22;;
11653;SDS011;5883;48.818;9.114;2022-11-03T08:34:36;10.60;;;4.65;;
11653;SDS011;5883;48.818;9.114;2022-11-03T08:37:04;6.10;;;4.13;;
11653;SDS011;5883;48.818;9.114;2022-11-03T08:39:31;6.15;;;3.72;;
11653;SDS011;5883;48.818;9.114;2022-11-03T08:42:00;7.28;;;3.95;;
11653;SDS011;5883;48.818;9.114;2022-11-03T08:44:27;4.72;;;2.88;;
11653;SDS011;5883;48.818;9.114;2022-11-03T08:46:53;6.90;;;3.17;;
11653;SDS011;5883;48.818;9.114;2022-11-03T08:49:20;6.72;;;2.92;;
11653;SDS011;5883;48.818;9.114;2022-11-03T08:51:46;4.90;;;2.75;;
11653;SDS011;5883;48.818;9.114;2022-11-03T08:54:14;6.47;;;2.78;;
11653;SDS011;5883;48.818;9.114;2022-11-03T08:56:41;5.18;;;2.83;;
11653;SDS011;5883;48.818;9.114;2022-11-03T08:59:08;7.28;;;2.38;;
11653;SDS011;5883;48.818;9.114;2022-11-03T09:01:35;7.68;;;2.58;;
11653;SDS011;5883;48.818;9.114;2022-11-03T09:04:01;5.93;;;2.30;;
11653;SDS011;5883;48.818;9.114;2022-11-03T09:06:28;4.53;;;2.67;;
11653;SDS011;5883;48.818;9.114;2022-11-03T09:08:55;8.85;;;2.40;;
11653;SDS011;5883;48.818;9.114;2022-11-03T09:11:23;4.85;;;2.65;;
11653;SDS011;5883;48.818;9.114;2022-11-03T09:13:49;4.03;;;2.40;;
11653;SDS011;5883;48.818;9.114;2022-11-03T09:16:16;5.93;;;2.20;;
11653;SDS011;5883;48.818;9.114;2022-11-03T09:18:42;6.75;;;2.75;;
11653;SDS011;5883;48.818;9.114;2022-11-03T09:21:09;6.35;;;2.60;;
11653;SDS011;5883;48.818;9.114;2022-11-03T09:23:36;6.38;;;2.58;;
11653;SDS011;5883;48.818;9.114;2022-11-03T09:26:02;5.32;;;2.58;;
11653;SDS011;5883;48.818;9.114;2022-11-03T09:28:32;3.28;;;2.15;;
11653;SDS011;5883;48.818;9.114;2022-11-03T09:30:58;4.70;;;2.28;;
11653;SDS011;5883;48.818;9.114;2022-11-03T09:33:25;4.00;;;2.30;;
11653;SDS011;5883;48.818;9.114;2022-11-03T09:35:51;3.20;;;2.42;;
11653;SDS011;5883;48.818;9.114;2022-11-03T09:38:18;6.22;;;2.10;;
11653;SDS011;5883;48.818;9.114;2022-11-03T09:40:45;7.85;;;2.33;;
11653;SDS011;5883;48.818;9.114;2022-11-03T09:43:11;7.60;;;2.22;;
11653;SDS011;5883;48.818;9.114;2022-11-03T09:45:39;7.10;;;2.15;;
11653;SDS011;5883;48.818;9.114;2022-11-03T09:48:07;4.25;;;2.45;;
11653;SDS011;5883;48.818;9.114;2022-11-03T09:50:34;4.72;;;2.10;;
11653;SDS011;5883;48.818;9.114;2022-11-03T09:53:01;5.57;;;2.22;;
11653;SDS011;5883;48.818;9.114;2022-11-03T09:55:28;3.45;;;1.95;;
11653;SDS011;5883;48.818;9.114;2022-11-03T09:57:56;6.20;;;2.28;;
11653;SDS011;5883;48.818;9.114;2022-11-03T10:00:24;4.70;;;1.90;;
11653;SDS011;5883;48.818;9.114;2022-11-03T10:02:52;4.68;;;2.08;;
11653;SDS011;5883;48.818;9.114;2022-11-03T10:05:19;4.35;;;2.10;;
11653;SDS011;5883;48.818;9.114;2022-11-03T10:07:47;4.57;;;2.72;;
11653;SDS011;5883;48.818;9.114;2022-11-03T10:10:14;19.95;;;2.97;;
11653;SDS011;5883;48.818;9.114;2022-11-03T10:12:42;35.78;;;4.32;;
11653;SDS011;5883;48.818;9.114;2022-11-03T10:15:12;3.03;;;2.13;;
11653;SDS011;5883;48.818;9.114;2022-11-03T10:17:39;9.35;;;2.05;;
11653;SDS011;5883;48.818;9.114;2022-11-03T10:20:08;2.90;;;1.80;;
11653;SDS011;5883;48.818;9.114;2022-11-03T10:22:35;4.47;;;1.98;;
11653;SDS011;5883;48.818;9.114;2022-11-03T10:27:47;3.40;;;2.33;;
11653;SDS011;5883;48.818;9.114;2022-11-03T10:30:13;8.88;;;2.80;;
11653;SDS011;5883;48.818;9.114;2022-11-03T10:32:40;4.35;;;2.05;;
11653;SDS011;5883;48.818;9.114;2022-11-03T10:37:56;8.57;;;2.53;;
11653;SDS011;5883;48.818;9.114;2022-11-03T10:40:32;17.13;;;2.90;;
11653;SDS011;5883;48.818;9.114;2022-11-03T10:43:00;17.13;;;2.50;;
11653;SDS011;5883;48.818;9.114;2022-11-03T10:45:26;11.63;;;2.17;;
11653;SDS011;5883;48.818;9.114;2022-11-03T10:47:57;8.75;;;1.98;;
11653;SDS011;5883;48.818;9.114;2022-11-03T10:50:26;5.65;;;2.25;;
11653;SDS011;5883;48.818;9.114;2022-11-03T10:52:52;5.63;;;1.83;;
11653;SDS011;5883;48.818;9.114;2022-11-03T10:55:21;2.90;;;1.70;;
11653;SDS011;5883;48.818;9.114;2022-11-03T10:57:48;3.65;;;1.92;;
11653;SDS011;5883;48.818;9.114;2022-11-03T11:00:19;2.70;;;1.83;;
11653;SDS011;5883;48.818;9.114;2022-11-03T11:02:46;3.13;;;2.05;;
11653;SDS011;5883;48.818;9.114;2022-11-03T11:05:14;4.75;;;2.10;;
11653;SDS011;5883;48.818;9.114;2022-11-03T11:07:42;3.25;;;1.80;;
11653;SDS011;5883;48.818;9.114;2022-11-03T11:10:11;5.32;;;1.85;;
11653;SDS011;5883;48.818;9.114;2022-11-03T11:12:38;3.00;;;1.90;;
11653;SDS011;5883;48.818;9.114;2022-11-03T11:15:34;2.65;;;1.58;;
11653;SDS011;5883;48.818;9.114;2022-11-03T11:18:01;2.08;;;1.80;;
11653;SDS011;5883;48.818;9.114;2022-11-03T11:26:13;4.68;;;2.00;;
11653;SDS011;5883;48.818;9.114;2022-11-03T11:28:41;5.22;;;2.28;;
11653;SDS011;5883;48.818;9.114;2022-11-03T11:31:27;3.40;;;1.88;;
11653;SDS011;5883;48.818;9.114;2022-11-03T11:36:45;5.32;;;2.05;;
11653;SDS011;5883;48.818;9.114;2022-11-03T11:39:12;3.65;;;2.20;;
11653;SDS011;5883;48.818;9.114;2022-11-03T11:50:19;5.45;;;1.85;;
11653;SDS011;5883;48.818;9.114;2022-11-03T11:52:47;4.15;;;1.90;;
11653;SDS011;5883;48.818;9.114;2022-11-03T11:55:15;3.92;;;2.03;;
11653;SDS011;5883;48.818;9.114;2022-11-03T11:57:43;4.00;;;2.08;;
11653;SDS011;5883;48.818;9.114;2022-11-03T12:00:16;3.83;;;2.03;;
11653;SDS011;5883;48.818;9.114;2022-11-03T12:02:44;3.95;;;2.38;;
11653;SDS011;5883;48.818;9.114;2022-11-03T12:05:17;4.35;;;2.10;;
11653;SDS011;5883;48.818;9.114;2022-11-03T12:07:44;7.78;;;2.20;;
11653;SDS011;5883;48.818;9.114;2022-11-03T12:10:11;3.15;;;1.90;;
11653;SDS011;5883;48.818;9.114;2022-11-03T12:12:39;4.70;;;2.10;;
11653;SDS011;5883;48.818;9.114;2022-11-03T12:17:47;4.38;;;2.10;;
11653;SDS011;5883;48.818;9.114;2022-11-03T12:23:06;2.28;;;2.08;;
11653;SDS011;5883;48.818;9.114;2022-11-03T12:25:34;5.13;;;2.20;;
11653;SDS011;5883;48.818;9.114;2022-11-03T12:28:01;4.55;;;2.17;;
11653;SDS011;5883;48.818;9.114;2022-11-03T12:30:27;5.78;;;2.45;;
11653;SDS011;5883;48.818;9.114;2022-11-03T12:32:54;4.82;;;1.98;;
11653;SDS011;5883;48.818;9.114;2022-11-03T12:35:21;5.15;;;2.50;;
11653;SDS011;5883;48.818;9.114;2022-11-03T12:37:48;6.30;;;2.10;;
11653;SDS011;5883;48.818;9.114;2022-11-03T12:40:16;3.17;;;1.90;;
11653;SDS011;5883;48.818;9.114;2022-11-03T12:42:43;6.15;;;2.10;;
11653;SDS011;5883;48.818;9.114;2022-11-03T12:45:09;4.50;;;2.33;;
11653;SDS011;5883;48.818;9.114;2022-11-03T12:47:37;4.18;;;1.90;;
11653;SDS011;5883;48.818;9.114;2022-11-03T12:50:04;3.97;;;2.08;;
11653;SDS011;5883;48.818;9.114;2022-11-03T12:52:31;3.33;;;2.08;;
11653;SDS011;5883;48.818;9.114;2022-11-03T12:54:57;3.55;;;1.88;;
11653;SDS011;5883;48.818;9.114;2022-11-03T12:57:25;6.55;;;2.47;;
11653;SDS011;5883;48.818;9.114;2022-11-03T12:59:52;5.97;;;2.13;;
11653;SDS011;5883;48.818;9.114;2022-11-03T13:02:18;5.15;;;2.60;;
11653;SDS011;5883;48.818;9.114;2022-11-03T13:04:45;4.28;;;2.13;;
11653;SDS011;5883;48.818;9.114;2022-11-03T13:07:11;3.47;;;2.20;;
11653;SDS011;5883;48.818;9.114;2022-11-03T13:09:38;3.03;;;2.20;;
11653;SDS011;5883;48.818;9.114;2022-11-03T13:12:04;5.40;;;2.30;;
11653;SDS011;5883;48.818;9.114;2022-11-03T13:14:50;5.55;;;2.63;;
11653;SDS011;5883;48.818;9.114;2022-11-03T13:17:16;2.40;;;1.90;;
11653;SDS011;5883;48.818;9.114;2022-11-03T13:19:42;6.43;;;2.60;;
11653;SDS011;5883;48.818;9.114;2022-11-03T13:22:09;12.63;;;3.33;;
11653;SDS011;5883;48.818;9.114;2022-11-03T13:24:36;5.80;;;2.67;;
11653;SDS011;5883;48.818;9.114;2022-11-03T13:27:02;4.88;;;3.03;;
11653;SDS011;5883;48.818;9.114;2022-11-03T13:29:29;5.93;;;3.30;;
11653;SDS011;5883;48.818;9.114;2022-11-03T13:31:57;5.13;;;3.58;;
11653;SDS011;5883;48.818;9.114;2022-11-03T13:34:23;6.22;;;3.70;;
11653;SDS011;5883;48.818;9.114;2022-11-03T13:36:50;5.78;;;3.55;;
11653;SDS011;5883;48.818;9.114;2022-11-03T13:39:16;7.20;;;3.25;;
11653;SDS011;5883;48.818;9.114;2022-11-03T13:41:43;5.38;;;3.42;;
11653;SDS011;5883;48.818;9.114;2022-11-03T13:44:10;7.85;;;3.78;;
11653;SDS011;5883;48.818;9.114;2022-11-03T13:46:36;8.60;;;3.42;;
11653;SDS011;5883;48.818;9.114;2022-11-03T13:49:04;11.00;;;4.45;;
11653;SDS011;5883;48.818;9.114;2022-11-03T13:51:31;7.50;;;3.75;;
11653;SDS011;5883;48.818;9.114;2022-11-03T13:53:57;7.20;;;3.47;;
11653;SDS011;5883;48.818;9.114;2022-11-03T13:56:24;6.50;;;3.20;;
11653;SDS011;5883;48.818;9.114;2022-11-03T13:58:50;7.63;;;3.75;;
11653;SDS011;5883;48.818;9.114;2022-11-03T14:01:17;7.82;;;4.00;;
11653;SDS011;5883;48.818;9.114;2022-11-03T14:03:43;8.25;;;3.95;;
11653;SDS011;5883;48.818;9.114;2022-11-03T14:06:11;8.10;;;4.20;;
11653;SDS011;5883;48.818;9.114;2022-11-03T14:08:38;7.22;;;3.50;;
11653;SDS011;5883;48.818;9.114;2022-11-03T14:11:04;5.38;;;3.47;;
11653;SDS011;5883;48.818;9.114;2022-11-03T14:13:45;6.53;;;3.40;;
11653;SDS011;5883;48.818;9.114;2022-11-03T14:16:11;8.55;;;3.75;;
11653;SDS011;5883;48.818;9.114;2022-11-03T14:18:38;6.70;;;3.70;;
11653;SDS011;5883;48.818;9.114;2022-11-03T14:21:04;9.27;;;4.15;;
11653;SDS011;5883;48.818;9.114;2022-11-03T14:23:32;11.00;;;4.07;;
11653;SDS011;5883;48.818;9.114;2022-11-03T14:25:59;8.10;;;3.88;;
11653;SDS011;5883;48.818;9.114;2022-11-03T14:28:28;6.65;;;3.88;;
11653;SDS011;5883;48.818;9.114;2022-11-03T14:30:55;8.05;;;4.13;;
11653;SDS011;5883;48.818;9.114;2022-11-03T14:33:24;5.45;;;3.85;;
11653;SDS011;5883;48.818;9.114;2022-11-03T14:35:50;8.50;;;4.07;;
11653;SDS011;5883;48.818;9.114;2022-11-03T14:38:17;14.77;;;3.67;;
11653;SDS011;5883;48.818;9.114;2022-11-03T14:40:45;8.65;;;3.88;;
11653;SDS011;5883;48.818;9.114;2022-11-03T14:43:29;8.40;;;4.22;;
11653;SDS011;5883;48.818;9.114;2022-11-03T14:45:55;8.35;;;4.50;;
11653;SDS011;5883;48.818;9.114;2022-11-03T14:48:22;6.57;;;3.78;;
11653;SDS011;5883;48.818;9.114;2022-11-03T14:50:48;6.85;;;4.07;;
11653;SDS011;5883;48.818;9.114;2022-11-03T14:53:15;5.47;;;3.67;;
11653;SDS011;5883;48.818;9.114;2022-11-03T14:55:42;8.65;;;3.90;;
11653;SDS011;5883;48.818;9.114;2022-11-03T14:58:09;9.55;;;4.35;;
11653;SDS011;5883;48.818;9.114;2022-11-03T15:00:36;7.93;;;3.97;;
11653;SDS011;5883;48.818;9.114;2022-11-03T15:03:03;7.22;;;4.43;;
11653;SDS011;5883;48.818;9.114;2022-11-03T15:05:29;6.88;;;3.78;;
11653;SDS011;5883;48.818;9.114;2022-11-03T15:08:12;4.30;;;3.33;;
11653;SDS011;5883;48.818;9.114;2022-11-03T15:10:38;9.27;;;3.65;;
11653;SDS011;5883;48.818;9.114;2022-11-03T15:13:05;7.72;;;3.50;;
11653;SDS011;5883;48.818;9.114;2022-11-03T15:15:33;12.95;;;5.03;;
11653;SDS011;5883;48.818;9.114;2022-11-03T15:18:00;10.65;;;4.57;;
11653;SDS011;5883;48.818;9.114;2022-11-03T15:20:27;7.82;;;4.40;;
11653;SDS011;5883;48.818;9.114;2022-11-03T15:22:54;8.02;;;4.43;;
11653;SDS011;5883;48.818;9.114;2022-11-03T15:25:20;6.03;;;3.55;;
11653;SDS011;5883;48.818;9.114;2022-11-03T15:27:47;7.30;;;3.60;;
11653;SDS011;5883;48.818;9.114;2022-11-03T15:30:13;4.47;;;3.30;;
11653;SDS011;5883;48.818;9.114;2022-11-03T15:32:42;9.68;;;3.47;;
11653;SDS011;5883;48.818;9.114;2022-11-03T15:35:08;7.80;;;3.58;;
11653;SDS011;5883;48.818;9.114;2022-11-03T15:37:35;4.35;;;3.30;;